Saint Anthony, Idaho
Current Conditions -  °F | °C
As of 11:22 PM on Wednesday 28 Jan 2015 (Local Time) from KRXE Reporting Station
Haze Haze  
Wind Chill: 27°   Ceiling: 300
Heat Index: 32°   Visibility: 0.75mi
Dew Point: 32°   Wind: 5mph
Humidity: 100%   Direction: 70°ENE
Pressure: 30.42"   Gusts: NA
Location:  43.97°N, 111.68°W
Report Text: KRXE 290622Z AUTO 07004KT 3/4SM BR VV003 00/00 A3042 RMK AO2 T00000000
Loading
Personal Weather Stations






























Interactive Weather Map New forecast layout! Learn more

10-Day Weather Forecast

Advertisements
Track Severe Weather on mobile